Thunder radar more information blitzortung!


Radar de pluja more information rain snow radar


Visita la nostra xarxa de llocs de meteo:

Template documentation
and downloads

And another site



No particular awareness of the weather is required.    There are no Weather-warnings

Pagina Historial Weather Underground text

Diari Resum Agost 5, 2017 Unitats:  Mètric    Imperial   Tant
« Previous Dia
SegĂźent Dia »
Diari Setmana Mensual Anual Personalitzada
  Maxima: Minima: Media:
Temperatura: -17.8 °C -5 °C -1 °C
Punt de rosada: -17.8 °C -9.2 °C -8.3 °C
Humitat: Humidity % 31 % 47 %
Wind Speed: 0 km/h 0 km/h 10.9 km/h
RĂ fegues de vent: 0 km/h - -
Vent:- - SSW
Pression baro: 0 hPa 34222.3 hPa -
Precipitacions: 0 mm    
Historical Graphs
 
 
Dades de taula per Agost 5, 2017
Temps Temperatura Punt de rosada Pression baro Vent Wind Speed RĂ fegues de vent Humitat Rainfall Rate (Hourly)
-17.8 °C -17.8 °C 0 hPa Calm     Humidity % 0 mm
00:00 -4.6 °C -7.6 °C 34327.3 hPa Calm     72 % 0 mm
00:02 -3.2 °C -7.4 °C 34327.3 hPa SW 3.1 km/h   63 % 0 mm
00:07 -3.2 °C -7.4 °C 34327.3 hPa SW 3.1 km/h   63 % 0 mm
00:10 -4.6 °C -7.6 °C 34293.4 hPa Calm     72 % 0 mm
00:12 -3.2 °C -7.4 °C 34327.3 hPa Calm     63 % 0 mm
00:20 -4.6 °C -7.6 °C 34293.4 hPa Calm     72 % 0 mm
00:30 -4.6 °C -7.6 °C 34293.4 hPa Calm     72 % 0 mm
00:40 -4.8 °C -7.8 °C 34327.3 hPa Calm   5.1 km/h 72 % 0 mm
00:50 -4.9 °C -7.7 °C 34327.3 hPa Calm   2.6 km/h 73 % 0 mm
01:00 -4.9 °C -7.7 °C 34327.3 hPa Calm     73 % 0 mm
01:10 -4.9 °C -7.6 °C 34327.3 hPa Calm     74 % 0 mm
01:20 -4.9 °C -7.6 °C 34327.3 hPa Calm     74 % 0 mm
01:30 -4.9 °C -7.6 °C 34327.3 hPa Calm     74 % 0 mm
01:40 -4.9 °C -7.7 °C 34327.3 hPa Calm     74 % 0 mm
01:50 -5 °C -7.7 °C 34327.3 hPa Calm     74 % 0 mm
02:00 -4.9 °C -7.6 °C 34327.3 hPa Calm     74 % 0 mm
02:10 -4.9 °C -7.6 °C 34327.3 hPa Calm     74 % 0 mm
02:20 -5 °C -7.7 °C 34327.3 hPa Calm     74 % 0 mm
02:30 -4.9 °C -7.6 °C 34327.3 hPa WSW 2.6 km/h 2.6 km/h 74 % 0 mm
02:40 -4.6 °C -7.4 °C 34327.3 hPa Calm     73 % 0 mm
02:50 -4.3 °C -7.3 °C 34327.3 hPa NE 2.6 km/h 5.1 km/h 72 % 0 mm
03:00 -4.3 °C -7.4 °C 34327.3 hPa NE 2.6 km/h 5.1 km/h 71 % 0 mm
03:10 -4 °C -7.4 °C 34327.3 hPa NE 2.6 km/h 5.1 km/h 69 % 0 mm
03:20 -3.9 °C -7.4 °C 34327.3 hPa East 5.1 km/h 7.7 km/h 68 % 0 mm
03:30 -3.7 °C -7.3 °C 34327.3 hPa ESE 5.1 km/h 7.7 km/h 67 % 0 mm
03:40 -3.3 °C -7.1 °C 34327.3 hPa Calm   5.1 km/h 66 % 0 mm
03:50 -3.1 °C -7.1 °C 34327.3 hPa South 2.6 km/h 5.1 km/h 65 % 0 mm
04:00 -2.9 °C -7.2 °C 34327.3 hPa South 2.6 km/h 5.1 km/h 63 % 0 mm
04:10 -2.6 °C -7.2 °C 34327.3 hPa SE 5.1 km/h 7.7 km/h 61 % 0 mm
04:20 -2.3 °C -6.9 °C 34327.3 hPa East 2.6 km/h 5.1 km/h 61 % 0 mm
04:30 -2.4 °C -7.3 °C 34327.3 hPa East 2.6 km/h 5.1 km/h 59 % 0 mm
04:40 -2.1 °C -7.1 °C 34361.1 hPa East 5.1 km/h 7.7 km/h 58 % 0 mm
04:50 -1.7 °C -7.1 °C 34327.3 hPa ENE 2.6 km/h 7.7 km/h 56 % 0 mm
05:00 -1.3 °C -7 °C 34327.3 hPa NE 2.6 km/h 5.1 km/h 54 % 0 mm
05:10 -0.8 °C -6.8 °C 34327.3 hPa Calm   5.1 km/h 53 % 0 mm
10:17 -0.9 °C -7 °C 34327.3 hPa South 6 km/h 6 km/h 52 % 0 mm
10:22 -0.4 °C -6.9 °C 34327.3 hPa SSE 9 km/h 9 km/h 50 % 0 mm
10:27 -0.4 °C -7.1 °C 34327.3 hPa West 6 km/h 6 km/h 49 % 0 mm
10:32 -0.4 °C -7.1 °C 34327.3 hPa South 7.6 km/h 7.6 km/h 49 % 0 mm
10:37 -0.1 °C -6.9 °C 34327.3 hPa South 9 km/h 9 km/h 48 % 0 mm
10:42 0.4 °C -6.5 °C 34327.3 hPa SSW 12.7 km/h 12.7 km/h 48 % 0 mm
10:47 0.2 °C -7.1 °C 34327.3 hPa SW 14.5 km/h 14.5 km/h 46 % 0 mm
10:52 -0.1 °C -7.3 °C 34327.3 hPa SSW 9 km/h 9 km/h 46 % 0 mm
10:57 0.1 °C -7.4 °C 34327.3 hPa SW 6 km/h 6 km/h 45 % 0 mm
11:02 -0.1 °C -7.6 °C 34327.3 hPa SW 11.9 km/h 11.9 km/h 45 % 0 mm
11:07 0.1 °C -7.4 °C 34327.3 hPa West 10.3 km/h 10.3 km/h 45 % 0 mm
11:12 0 °C -7.4 °C 34327.3 hPa WSW 11.1 km/h 11.1 km/h 45 % 0 mm
11:17 0.2 °C -7.3 °C 34327.3 hPa WSW 16.1 km/h 16.1 km/h 45 % 0 mm
11:22 0.3 °C -7.4 °C 34327.3 hPa SSW 6 km/h 6 km/h 44 % 0 mm
11:27 0.2 °C -7.4 °C 34327.3 hPa West 11.9 km/h 11.9 km/h 44 % 0 mm
11:32 0.3 °C -7.4 °C 34293.4 hPa WSW 9 km/h 9 km/h 44 % 0 mm
11:37 0.4 °C -7.5 °C 34293.4 hPa SW 11.9 km/h 11.9 km/h 43 % 0 mm
11:42 0.5 °C -7.4 °C 34293.4 hPa WSW 23.8 km/h 23.8 km/h 43 % 0 mm
11:47 0.6 °C -7.8 °C 34327.3 hPa SW 23.8 km/h 23.8 km/h 41 % 0 mm
11:52 0.6 °C -8 °C 34327.3 hPa West 20.9 km/h 20.9 km/h 40 % 0 mm
11:57 0.8 °C -7.8 °C 34327.3 hPa WSW 22.5 km/h 22.5 km/h 40 % 0 mm
12:02 0.7 °C -7.8 °C 34293.4 hPa SSE 15 km/h 15 km/h 40 % 0 mm
12:07 0.8 °C -7.7 °C 34293.4 hPa WSW 15 km/h 15 km/h 40 % 0 mm
12:12 1.1 °C -7.6 °C 34293.4 hPa SW 15 km/h 15 km/h 40 % 0 mm
12:17 1 °C -7.8 °C 34327.3 hPa SSW 20.9 km/h 20.9 km/h 39 % 0 mm
12:22 1.2 °C -7.7 °C 34327.3 hPa WSW 16.1 km/h 16.1 km/h 39 % 0 mm
12:27 1.2 °C -7.9 °C 34327.3 hPa SW 15 km/h 15 km/h 38 % 0 mm
12:32 1.2 °C -8.2 °C 34327.3 hPa WSW 23.8 km/h 23.8 km/h 37 % 0 mm
12:37 1.3 °C -8.2 °C 34327.3 hPa SSW 20.9 km/h 20.9 km/h 36 % 0 mm
12:42 1.4 °C -7.9 °C 34327.3 hPa SW 11.9 km/h 11.9 km/h 37 % 0 mm
12:47 1.8 °C -7.8 °C 34327.3 hPa West 11.9 km/h 11.9 km/h 36 % 0 mm
12:52 1.6 °C -8 °C 34327.3 hPa West 11.9 km/h 11.9 km/h 36 % 0 mm
12:57 1.3 °C -8.2 °C 34327.3 hPa West 17.9 km/h 17.9 km/h 36 % 0 mm
13:02 1.4 °C -8.4 °C 34327.3 hPa SW 11.9 km/h 11.9 km/h 35 % 0 mm
13:07 1.8 °C -8.4 °C 34327.3 hPa South 12.2 km/h 12.2 km/h 34 % 0 mm
13:12 1.8 °C -8.3 °C 34327.3 hPa SW 20.9 km/h 20.9 km/h 34 % 0 mm
13:17 1.7 °C -8.4 °C 34327.3 hPa SW 17.9 km/h 17.9 km/h 34 % 0 mm
13:22 1.4 °C -8.7 °C 34327.3 hPa WSW 32.8 km/h 32.8 km/h 34 % 0 mm
13:27 1.7 °C -8.7 °C 34327.3 hPa SSW 15 km/h 15 km/h 33 % 0 mm
13:32 1.7 °C -8.7 °C 34327.3 hPa SW 17.9 km/h 17.9 km/h 33 % 0 mm
13:37 1.8 °C -8.9 °C 34327.3 hPa SW 29.8 km/h 29.8 km/h 32 % 0 mm
13:42 1.5 °C -8.8 °C 34327.3 hPa SW 26.9 km/h 26.9 km/h 33 % 0 mm
13:47 1.6 °C -8.8 °C 34327.3 hPa SW 32.8 km/h 32.8 km/h 33 % 0 mm
13:52 1.7 °C -9 °C 34327.3 hPa South 11.9 km/h 14 km/h 32 % 0 mm
13:57 2.1 °C -8.7 °C 34327.3 hPa SSE 15 km/h 15 km/h 32 % 0 mm
14:02 1.9 °C -9.1 °C 34293.4 hPa SW 16.6 km/h 16.6 km/h 31 % 0 mm
14:07 1.8 °C -8.8 °C 34293.4 hPa SW 20.9 km/h 20.9 km/h 32 % 0 mm
14:12 1.8 °C -9.1 °C 34293.4 hPa SSW 15 km/h 15 km/h 31 % 0 mm
14:17 2 °C -8.9 °C 34293.4 hPa SSE 15 km/h 15 km/h 31 % 0 mm
14:22 2 °C -8.9 °C 34293.4 hPa WSW 23.8 km/h 23.8 km/h 31 % 0 mm
14:27 2.1 °C -8.8 °C 34293.4 hPa SW 15 km/h 15 km/h 31 % 0 mm
14:32 1.9 °C -9 °C 34293.4 hPa West 26.9 km/h 26.9 km/h 31 % 0 mm
14:37 1.8 °C -9.2 °C 34293.4 hPa SW 20.9 km/h 20.9 km/h 31 % 0 mm
14:42 1.8 °C -9.2 °C 34293.4 hPa SSW 26.4 km/h 26.4 km/h 31 % 0 mm
14:47 2.1 °C -8.9 °C 34293.4 hPa ESE 11.9 km/h 11.9 km/h 31 % 0 mm
14:52 2.2 °C -8.8 °C 34293.4 hPa West 39.9 km/h 39.9 km/h 31 % 0 mm
14:57 2 °C -8.9 °C 34293.4 hPa SW 20.9 km/h 20.9 km/h 31 % 0 mm
15:02 2.3 °C -8.7 °C 34256.2 hPa SSE 15 km/h 15 km/h 31 % 0 mm
15:07 2.4 °C -8.6 °C 34256.2 hPa WSW 19.6 km/h 19.6 km/h 31 % 0 mm
15:12 2.4 °C -8.7 °C 34256.2 hPa SW 15 km/h 15 km/h 31 % 0 mm
15:17 2.3 °C -8.7 °C 34256.2 hPa SSW 32.8 km/h 32.8 km/h 31 % 0 mm
15:22 2.1 °C -8.9 °C 34256.2 hPa SW 20.9 km/h 20.9 km/h 31 % 0 mm
15:27 2.2 °C -8.5 °C 34256.2 hPa SW 18.3 km/h 18.3 km/h 32 % 0 mm
15:32 2.2 °C -8.6 °C 34256.2 hPa SSE 17.9 km/h 17.9 km/h 32 % 0 mm
15:37 1.9 °C -8.7 °C 34256.2 hPa SW 17.9 km/h 17.9 km/h 32 % 0 mm
15:38 1.9 °C -8.7 °C 34256.2 hPa ESE 26.9 km/h 26.9 km/h 32 % 0 mm
15:43 1.7 °C -8.9 °C 34256.2 hPa West 17.9 km/h 17.9 km/h 32 % 0 mm
15:48 1.7 °C -8.7 °C 34256.2 hPa South 11.9 km/h 11.9 km/h 33 % 0 mm
15:53 1.8 °C -8.6 °C 34256.2 hPa South 11.9 km/h 11.9 km/h 33 % 0 mm
15:58 1.8 °C -8.6 °C 34256.2 hPa SE 26.9 km/h 26.9 km/h 33 % 0 mm
16:03 1.8 °C -8.6 °C 34256.2 hPa SSW 15 km/h 15 km/h 33 % 0 mm
16:08 1.7 °C -8.7 °C 34256.2 hPa SW 26.9 km/h 26.9 km/h 33 % 0 mm
16:13 1.8 °C -8.6 °C 34256.2 hPa South 20.9 km/h 20.9 km/h 33 % 0 mm
16:18 1.7 °C -8.7 °C 34256.2 hPa SW 32.8 km/h 32.8 km/h 33 % 0 mm
16:23 1.6 °C -8.6 °C 34256.2 hPa SSW 29.8 km/h 29.8 km/h 34 % 0 mm
16:28 1.7 °C -8.7 °C 34256.2 hPa SSE 20.9 km/h 20.9 km/h 33 % 0 mm
16:33 1.6 °C -8.5 °C 34256.2 hPa WSW 25.9 km/h 25.9 km/h 34 % 0 mm
16:38 1.6 °C -8.5 °C 34256.2 hPa South 35.7 km/h 35.7 km/h 34 % 0 mm
16:43 1.7 °C -8.4 °C 34256.2 hPa SW 29.8 km/h 29.8 km/h 34 % 0 mm
16:48 1.6 °C -8.2 °C 34256.2 hPa SW 15 km/h 15 km/h 35 % 0 mm
16:53 1.6 °C -8.3 °C 34256.2 hPa SSW 20.9 km/h 20.9 km/h 35 % 0 mm
17:03 1.6 °C -8.3 °C 34256.2 hPa SSW 11.9 km/h 11.9 km/h 35 % 0 mm
17:08 1.7 °C -8.4 °C 34256.2 hPa WSW 15.6 km/h 15.6 km/h 34 % 0 mm
17:13 1.7 °C -8.4 °C 34256.2 hPa SW 35.7 km/h 35.7 km/h 34 % 0 mm
17:18 1.5 °C -8.3 °C 34256.2 hPa SW 19.6 km/h 19.6 km/h 35 % 0 mm
17:23 1.5 °C -8.3 °C 34256.2 hPa SW 20.9 km/h 20.9 km/h 35 % 0 mm
17:28 1.3 °C -8.5 °C 34256.2 hPa WSW 26.9 km/h 26.9 km/h 35 % 0 mm
17:33 1.3 °C -8.5 °C 34256.2 hPa SW 20.9 km/h 20.9 km/h 35 % 0 mm
17:38 1.3 °C -8.8 °C 34256.2 hPa SW 20.3 km/h 20.3 km/h 34 % 0 mm
17:43 1.4 °C -8.4 °C 34256.2 hPa SW 17.9 km/h 17.9 km/h 35 % 0 mm
17:48 1.5 °C -8.6 °C 34256.2 hPa SW 20.9 km/h 20.9 km/h 34 % 0 mm
17:53 1.3 °C -8.7 °C 34256.2 hPa ESE 23.8 km/h 23.8 km/h 34 % 0 mm
17:58 1.5 °C -8.6 °C 34256.2 hPa South 15 km/h 15 km/h 34 % 0 mm
18:03 1.2 °C -8.8 °C 34256.2 hPa WSW 20.9 km/h 20.9 km/h 34 % 0 mm
18:08 1.3 °C -9 °C 34256.2 hPa South 19.2 km/h 19.2 km/h 33 % 0 mm
18:13 1.1 °C -9.2 °C 34256.2 hPa SSW 20.9 km/h 20.9 km/h 33 % 0 mm
18:18 1.1 °C -9.2 °C 34256.2 hPa SW 20.3 km/h 20.3 km/h 33 % 0 mm
18:28 1 °C -9.1 °C 34256.2 hPa SW 15 km/h 15 km/h 34 % 0 mm
18:33 0.9 °C -9.1 °C 34256.2 hPa SSW 15 km/h 15 km/h 34 % 0 mm
18:38 0.9 °C -9.1 °C 34256.2 hPa WNW 17.9 km/h 17.9 km/h 34 % 0 mm
18:43 1 °C -9.1 °C 34256.2 hPa SW 23.8 km/h 23.8 km/h 34 % 0 mm
18:48 0.8 °C -8.9 °C 34222.3 hPa SSW 22 km/h 22 km/h 35 % 0 mm
18:53 0.6 °C -9.1 °C 34222.3 hPa SE 15 km/h 15 km/h 35 % 0 mm
18:58 0.7 °C -9.1 °C 34222.3 hPa West 22 km/h 22 km/h 35 % 0 mm
19:03 0.4 °C -9.1 °C 34256.2 hPa SW 20.9 km/h 20.9 km/h 36 % 0 mm
19:08 0.4 °C -9.1 °C 34256.2 hPa SW 16.6 km/h 16.6 km/h 36 % 0 mm
19:10 -2.9 °C -8.6 °C 34327.3 hPa NE 2.6 km/h 2.6 km/h 54 % 0 mm
19:13 0.3 °C -8.9 °C 34256.2 hPa SW 17.9 km/h 17.9 km/h 37 % 0 mm
19:18 0.1 °C -9.1 °C 34256.2 hPa WSW 26.9 km/h 26.9 km/h 37 % 0 mm
19:20 -2.9 °C -8.4 °C 34327.3 hPa Calm   2.6 km/h 55 % 0 mm
19:23 -0.1 °C -9 °C 34256.2 hPa SSW 18.3 km/h 18.3 km/h 38 % 0 mm
19:28 -0.1 °C -9 °C 34256.2 hPa SW 15 km/h 15 km/h 38 % 0 mm
19:30 -3.1 °C -8.5 °C 34327.3 hPa North 2.6 km/h 2.6 km/h 55 % 0 mm
19:33 -0.2 °C -9.1 °C 34256.2 hPa WSW 17.9 km/h 17.9 km/h 38 % 0 mm
19:38 -0.3 °C -9 °C 34256.2 hPa SW 19.6 km/h 19.6 km/h 39 % 0 mm
19:40 -3.1 °C -8.4 °C 34327.3 hPa Calm   2.6 km/h 56 % 0 mm
19:43 -0.4 °C -9.1 °C 34256.2 hPa South 11.9 km/h 11.9 km/h 39 % 0 mm
19:48 -0.6 °C -9 °C 34256.2 hPa SSW 14 km/h 14 km/h 40 % 0 mm
19:50 -3.2 °C -8.3 °C 34327.3 hPa NW 2.6 km/h 5.1 km/h 57 % 0 mm
19:53 -0.7 °C -8.9 °C 34256.2 hPa SW 9 km/h 9 km/h 41 % 0 mm
19:58 -0.8 °C -9 °C 34256.2 hPa SW 26.9 km/h 26.9 km/h 41 % 0 mm
20:00 -3.2 °C -8.3 °C 34327.3 hPa NNE 2.6 km/h 5.1 km/h 57 % 0 mm
20:03 -0.9 °C -8.8 °C 34222.3 hPa SW 20.9 km/h 20.9 km/h 42 % 0 mm
20:08 -1 °C -8.9 °C 34222.3 hPa WSW 11.9 km/h 11.9 km/h 42 % 0 mm
20:10 -3.3 °C -8.2 °C 34327.3 hPa Calm   5.1 km/h 58 % 0 mm
20:13 -1.1 °C -8.8 °C 34222.3 hPa SW 9 km/h 9 km/h 43 % 0 mm
20:14 -1.1 °C -8.8 °C 34222.3 hPa SW 9 km/h 9 km/h 43 % 0 mm
20:19 -1.1 °C -8.8 °C 34256.2 hPa WSW 11.9 km/h 11.9 km/h 43 % 0 mm
20:20 -3.3 °C -8.1 °C 34327.3 hPa NNE 2.6 km/h 5.1 km/h 59 % 0 mm
20:24 -1.2 °C -8.9 °C 34256.2 hPa SSW 9 km/h 9 km/h 43 % 0 mm
20:29 -1.2 °C -8.8 °C 34256.2 hPa South 9 km/h 9 km/h 44 % 0 mm
20:30 -3.4 °C -8 °C 34327.3 hPa Calm     60 % 0 mm
20:34 -1.3 °C -8.8 °C 34222.3 hPa SW 8.5 km/h 8.5 km/h 44 % 0 mm
20:39 -1.3 °C -8.8 °C 34222.3 hPa WSW 9 km/h 9 km/h 44 % 0 mm
20:40 -3.6 °C -8.3 °C 34327.3 hPa Calm     59 % 0 mm
20:44 -1.4 °C -8.7 °C 34222.3 hPa South 11.9 km/h 11.9 km/h 45 % 0 mm
20:49 -1.4 °C -8.8 °C 34256.2 hPa SW 9 km/h 9 km/h 45 % 0 mm
20:50 -3.6 °C -8.2 °C 34327.3 hPa Calm   2.6 km/h 60 % 0 mm
20:54 -1.5 °C -8.8 °C 34256.2 hPa SW 15 km/h 15 km/h 45 % 0 mm
20:59 -1.5 °C -8.8 °C 34256.2 hPa SW 9 km/h 9 km/h 45 % 0 mm
21:00 -3.6 °C -8.1 °C 34327.3 hPa Calm     61 % 0 mm
21:04 -1.6 °C -8.8 °C 34256.2 hPa South 6.3 km/h 6.3 km/h 45 % 0 mm
21:09 -1.6 °C -8.7 °C 34256.2 hPa SW 11.9 km/h 11.9 km/h 46 % 0 mm
21:10 -3.6 °C -7.9 °C 34327.3 hPa Calm   2.6 km/h 62 % 0 mm
21:14 -1.7 °C -8.8 °C 34256.2 hPa SW 9 km/h 9 km/h 46 % 0 mm
21:19 -1.7 °C -8.7 °C 34293.4 hPa SW 6.8 km/h 6.8 km/h 47 % 0 mm
21:20 -3.7 °C -7.9 °C 34327.3 hPa Calm     63 % 0 mm
21:21 -1.7 °C -8.7 °C 34293.4 hPa WSW 6.8 km/h 6.8 km/h 47 % 0 mm
21:26 -1.8 °C -8.5 °C 34293.4 hPa SSE 6 km/h 6 km/h 48 % 0 mm
21:30 -3.7 °C -7.9 °C 34327.3 hPa Calm     63 % 0 mm
21:31 -1.8 °C -8.6 °C 34327.3 hPa SSW 3.1 km/h   48 % 0 mm
21:36 -1.9 °C -8.6 °C 34327.3 hPa SSE 6 km/h 6 km/h 48 % 0 mm
21:40 -3.7 °C -7.9 °C 34327.3 hPa Calm     63 % 0 mm
21:41 -1.9 °C -8.6 °C 34327.3 hPa Calm     48 % 0 mm
21:46 -1.9 °C -8.7 °C 34327.3 hPa West 3.1 km/h 3.7 km/h 48 % 0 mm
21:50 -3.8 °C -7.8 °C 34327.3 hPa Calm     64 % 0 mm
21:51 -2 °C -8.7 °C 34327.3 hPa SSW 6 km/h 6 km/h 48 % 0 mm
21:56 -2.1 °C -8.6 °C 34327.3 hPa SW 6 km/h 6 km/h 49 % 0 mm
22:00 -3.9 °C -7.9 °C 34327.3 hPa Calm     64 % 0 mm
22:01 -2.1 °C -8.7 °C 34327.3 hPa SW 9.3 km/h 9.3 km/h 49 % 0 mm
22:06 -2.2 °C -8.6 °C 34327.3 hPa SW 9 km/h 9 km/h 50 % 0 mm
22:10 -3.9 °C -7.8 °C 34327.3 hPa Calm     65 % 0 mm
22:11 -2.2 °C -8.6 °C 34327.3 hPa WSW 6 km/h 6 km/h 50 % 0 mm
22:16 -2.3 °C -8.6 °C 34327.3 hPa Calm     50 % 0 mm
22:20 -4 °C -7.9 °C 34327.3 hPa WNW 2.6 km/h 2.6 km/h 65 % 0 mm
22:21 -2.3 °C -8.5 °C 34327.3 hPa SSW 3.1 km/h   51 % 0 mm
22:26 -2.4 °C -8.5 °C 34327.3 hPa WSW 3.1 km/h 3.1 km/h 51 % 0 mm
22:30 -4.1 °C -7.7 °C 34327.3 hPa Calm   2.6 km/h 67 % 0 mm
22:31 -2.4 °C -8.5 °C 34327.3 hPa WSW 6 km/h 6 km/h 51 % 0 mm
22:36 -2.4 °C -8.6 °C 34327.3 hPa SW 3.1 km/h 3.1 km/h 51 % 0 mm
22:40 -4.2 °C -8 °C 34327.3 hPa NW 2.6 km/h 5.1 km/h 66 % 0 mm
22:41 -2.5 °C -8.7 °C 34327.3 hPa Calm     51 % 0 mm
22:46 -2.5 °C -8.4 °C 34327.3 hPa Calm     52 % 0 mm
22:50 -4.3 °C -7.9 °C 34327.3 hPa Calm   2.6 km/h 67 % 0 mm
22:51 -2.6 °C -8.5 °C 34327.3 hPa Calm     52 % 0 mm
22:56 -2.6 °C -8.6 °C 34327.3 hPa SE 3.7 km/h   52 % 0 mm
23:00 -4.4 °C -8 °C 34327.3 hPa Calm   2.6 km/h 67 % 0 mm
23:01 -2.6 °C -8.6 °C 34327.3 hPa SE 3.1 km/h   52 % 0 mm
23:06 -2.6 °C -8.6 °C 34327.3 hPa ESE 6 km/h   52 % 0 mm
23:10 -4.5 °C -7.8 °C 34327.3 hPa Calm   2.6 km/h 69 % 0 mm
23:11 -2.6 °C -8.6 °C 34327.3 hPa ENE 6 km/h 6 km/h 52 % 0 mm
23:16 -2.6 °C -8.6 °C 34327.3 hPa SW 3.1 km/h   52 % 0 mm
23:20 -4.5 °C -7.7 °C 34327.3 hPa Calm     70 % 0 mm
23:21 -2.7 °C -8.6 °C 34327.3 hPa WSW 3.1 km/h   52 % 0 mm
23:26 -2.7 °C -8.7 °C 34327.3 hPa Calm     52 % 0 mm
23:30 -4.6 °C -7.8 °C 34327.3 hPa Calm     70 % 0 mm
23:31 -2.7 °C -8.7 °C 34327.3 hPa Calm     52 % 0 mm
23:36 -2.8 °C -8.7 °C 34327.3 hPa WSW 3.1 km/h   52 % 0 mm
23:40 -4.6 °C -7.8 °C 34327.3 hPa Calm     70 % 0 mm
23:41 -2.8 °C -8.7 °C 34327.3 hPa Calm     52 % 0 mm
23:46 -2.8 °C -8.7 °C 34327.3 hPa Calm     52 % 0 mm
23:50 -4.5 °C -7.6 °C 34327.3 hPa Calm   5.1 km/h 71 % 0 mm
23:51 -2.8 °C -8.6 °C 34327.3 hPa NE 3.1 km/h 3.7 km/h 53 % 0 mm
23:56 -2.9 °C -8.5 °C 34327.3 hPa Calm     54 % 0 mm
Meteo Sesrovires
Elogis d' Weather Underground - 2 mb

Guio original per  Jim McMurry - jmcmurry@mwt.net Adaptat per a la plantilla per  Wim van der Kuil - Leuven-Template.eu

Trobareu la nostra informacio del temps tambe a:

Weather Underground

AWEKAS